createdAt,value
2018-10-05T10:15:05.890Z,106.88
2018-10-05T10:16:05.876Z,95.62
2018-10-05T10:17:05.869Z,95.62
2018-10-05T10:18:05.875Z,95.62
2018-10-05T10:19:05.846Z,157.50
2018-10-05T10:20:05.831Z,185.62
2018-10-05T10:21:05.817Z,146.25
2018-10-05T10:22:05.813Z,208.12
2018-10-05T10:23:05.820Z,483.75
2018-10-05T10:24:05.786Z,540.00
2018-10-05T10:25:05.777Z,247.50
2018-10-05T10:26:05.776Z,292.50
2018-10-05T10:27:05.752Z,157.50
2018-10-05T10:28:05.816Z,118.12
2018-10-05T10:29:05.816Z,123.75
2018-10-05T10:30:05.724Z,106.88
2018-10-05T10:31:05.724Z,106.88
2018-10-05T10:32:05.696Z,90.00
2018-10-05T10:33:05.685Z,90.00
2018-10-05T10:34:05.686Z,95.62
2018-10-05T10:35:05.663Z,151.88
2018-10-05T10:36:05.653Z,106.88
2018-10-05T10:37:05.642Z,123.75
2018-10-05T10:38:05.630Z,163.12
2018-10-05T10:39:05.632Z,101.25
2018-10-05T10:40:05.645Z,90.00
2018-10-05T10:41:05.601Z,129.38
2018-10-05T10:42:05.586Z,84.38
2018-10-05T10:43:05.572Z,84.38
2018-10-05T10:44:05.571Z,84.38
2018-10-05T10:45:05.554Z,90.00
2018-10-05T10:46:05.540Z,90.00
2018-10-05T10:47:05.528Z,90.00
2018-10-05T10:48:05.569Z,112.50
2018-10-05T10:49:05.519Z,95.62
2018-10-05T10:50:05.496Z,84.38
2018-10-05T10:51:05.486Z,84.38
2018-10-05T10:52:05.474Z,84.38
2018-10-05T10:53:05.517Z,84.38
2018-10-05T10:54:05.472Z,90.00
2018-10-05T10:55:05.469Z,84.38
2018-10-05T10:56:05.480Z,101.25
2018-10-05T10:57:05.431Z,106.88
2018-10-05T10:58:05.411Z,95.62
2018-10-05T10:59:05.409Z,84.38
2018-10-05T11:00:05.382Z,101.25
2018-10-05T11:01:05.388Z,112.50
2018-10-05T11:02:05.368Z,101.25
2018-10-05T11:03:05.361Z,90.00
2018-10-05T11:04:05.419Z,185.62
2018-10-05T11:05:05.391Z,90.00
2018-10-05T11:06:05.318Z,106.88
2018-10-05T11:07:05.306Z,258.75
2018-10-05T11:08:05.298Z,264.38
2018-10-05T11:09:05.309Z,129.38
2018-10-05T11:10:05.274Z,680.62
2018-10-05T11:11:05.332Z,421.88
2018-10-05T11:12:05.250Z,118.12
2018-10-05T11:13:05.241Z,129.38
2018-10-05T11:14:05.238Z,106.88
2018-10-05T11:15:05.216Z,101.25
2018-10-05T11:16:05.204Z,1108.12
2018-10-05T11:17:05.232Z,1136.25
2018-10-05T11:18:05.183Z,208.12
2018-10-05T11:19:05.184Z,213.75
2018-10-05T11:20:05.161Z,135.00
2018-10-05T11:21:05.162Z,157.50
2018-10-05T11:22:05.145Z,230.62
2018-10-05T11:23:05.183Z,343.12
2018-10-05T11:24:05.133Z,405.00
2018-10-05T11:25:05.106Z,421.88
2018-10-05T11:26:05.096Z,315.00
2018-10-05T11:27:05.089Z,151.88
2018-10-05T11:28:05.084Z,208.12
2018-10-05T11:29:05.080Z,753.75
2018-10-05T11:30:05.049Z,624.38
2018-10-05T11:31:05.041Z,478.12
2018-10-05T11:32:05.034Z,309.38
2018-10-05T11:33:05.018Z,151.88
2018-10-05T11:34:05.017Z,84.38
2018-10-05T11:35:05.028Z,90.00
2018-10-05T11:36:04.987Z,78.75
2018-10-05T11:37:04.978Z,78.75
2018-10-05T11:38:04.967Z,78.75
2018-10-05T11:39:04.965Z,78.75
2018-10-05T11:40:04.940Z,78.75
2018-10-05T11:41:04.936Z,78.75
2018-10-05T11:42:04.915Z,78.75
2018-10-05T11:43:04.955Z,78.75
2018-10-05T11:44:04.942Z,78.75
2018-10-05T11:45:04.885Z,78.75
2018-10-05T11:46:04.876Z,78.75
2018-10-05T11:47:04.860Z,78.75
2018-10-05T11:48:04.851Z,78.75
2018-10-05T11:49:04.845Z,90.00
2018-10-05T11:50:04.844Z,118.12
2018-10-05T11:51:04.831Z,101.25
2018-10-05T11:52:04.807Z,84.38
2018-10-05T11:53:04.796Z,84.38
2018-10-05T11:54:04.789Z,84.38
2018-10-05T11:55:04.784Z,78.75
2018-10-05T11:56:04.762Z,78.75
2018-10-05T11:57:04.751Z,78.75
2018-10-05T11:58:04.739Z,78.75
2018-10-05T11:59:04.745Z,78.75
2018-10-05T12:00:04.737Z,84.38
2018-10-05T12:01:04.707Z,78.75
2018-10-05T12:02:04.714Z,78.75
2018-10-05T12:03:04.682Z,84.38
2018-10-05T12:04:04.678Z,78.75
2018-10-05T12:05:04.683Z,95.62
2018-10-05T12:06:04.665Z,123.75
2018-10-05T12:07:04.642Z,106.88
2018-10-05T12:08:04.629Z,101.25
2018-10-05T12:09:04.624Z,112.50
2018-10-05T12:10:04.621Z,118.12
2018-10-05T12:11:04.651Z,95.62
2018-10-05T12:12:04.587Z,84.38
2018-10-05T12:13:04.571Z,84.38
2018-10-05T12:14:04.593Z,84.38
2018-10-05T12:15:04.573Z,101.25
2018-10-05T12:16:04.537Z,180.00
2018-10-05T12:17:04.543Z,213.75
2018-10-05T12:18:04.531Z,140.62
2018-10-05T12:19:04.512Z,112.50
2018-10-05T12:20:04.546Z,106.88
2018-10-05T12:21:04.505Z,95.62
2018-10-05T12:22:04.471Z,84.38
2018-10-05T12:23:04.478Z,90.00
2018-10-05T12:24:04.451Z,112.50
2018-10-05T12:25:04.512Z,101.25
2018-10-05T12:26:04.432Z,90.00
2018-10-05T12:27:04.418Z,78.75
2018-10-05T12:28:04.416Z,106.88
2018-10-05T12:29:04.406Z,101.25
2018-10-05T12:30:04.404Z,78.75
2018-10-05T12:31:04.409Z,95.62
2018-10-05T12:32:04.369Z,101.25
2018-10-05T12:33:04.359Z,112.50
2018-10-05T12:34:04.357Z,95.62
2018-10-05T12:35:04.338Z,78.75
2018-10-05T12:36:04.318Z,78.75
2018-10-05T12:37:04.346Z,78.75
2018-10-05T12:38:04.294Z,90.00
2018-10-05T12:39:04.289Z,151.88
2018-10-05T12:40:04.287Z,118.12
2018-10-05T12:41:04.262Z,320.62
2018-10-05T12:42:04.260Z,421.88
2018-10-05T12:43:04.239Z,427.50
2018-10-05T12:44:04.229Z,416.25
2018-10-05T12:45:04.231Z,410.62
2018-10-05T12:46:04.208Z,326.25
2018-10-05T12:47:04.193Z,157.50
2018-10-05T12:48:04.183Z,78.75
2018-10-05T12:49:04.175Z,73.12
2018-10-05T12:50:04.212Z,73.12
2018-10-05T12:51:04.150Z,73.12
2018-10-05T12:52:04.139Z,73.12
2018-10-05T12:53:04.132Z,73.12
2018-10-05T12:54:04.118Z,73.12
2018-10-05T12:55:04.116Z,67.50
2018-10-05T12:56:04.097Z,67.50
2018-10-05T12:57:04.086Z,67.50
2018-10-05T12:58:04.090Z,67.50
2018-10-05T12:59:04.065Z,67.50
2018-10-05T13:00:04.070Z,67.50
2018-10-05T13:01:04.041Z,67.50
2018-10-05T13:02:04.033Z,67.50
2018-10-05T13:03:04.028Z,67.50
2018-10-05T13:04:04.009Z,67.50
2018-10-05T13:05:04.092Z,67.50
2018-10-05T13:06:04.041Z,67.50
2018-10-05T13:07:03.978Z,67.50
2018-10-05T13:08:03.972Z,67.50
2018-10-05T13:09:03.956Z,67.50
2018-10-05T13:10:03.941Z,67.50
2018-10-05T13:11:03.943Z,67.50
2018-10-05T13:12:03.925Z,67.50
2018-10-05T13:13:03.970Z,67.50
2018-10-05T13:14:03.909Z,67.50
2018-10-05T13:15:03.893Z,67.50
2018-10-05T13:16:03.895Z,67.50
2018-10-05T13:17:03.869Z,67.50
2018-10-05T13:18:03.892Z,67.50
2018-10-05T13:19:03.858Z,67.50
2018-10-05T13:20:03.859Z,67.50
2018-10-05T13:21:03.858Z,67.50
2018-10-05T13:22:03.900Z,67.50
2018-10-05T13:23:03.837Z,67.50
2018-10-05T13:24:03.818Z,67.50
2018-10-05T13:25:03.795Z,67.50
2018-10-05T13:26:03.785Z,67.50
2018-10-05T13:27:03.802Z,67.50
2018-10-05T13:28:03.746Z,67.50
2018-10-05T13:29:03.737Z,67.50
2018-10-05T13:30:03.728Z,67.50
2018-10-05T13:31:03.726Z,67.50
2018-10-05T13:32:03.705Z,67.50
2018-10-05T13:33:03.714Z,67.50
2018-10-05T13:34:03.730Z,67.50
2018-10-05T13:35:03.670Z,67.50
2018-10-05T13:36:03.716Z,67.50
2018-10-05T13:37:03.654Z,67.50
2018-10-05T13:38:03.646Z,67.50
2018-10-05T13:39:03.632Z,67.50
2018-10-05T13:40:03.618Z,67.50
2018-10-05T13:41:03.613Z,67.50
2018-10-05T13:42:03.722Z,67.50
2018-10-05T13:43:03.592Z,67.50
2018-10-05T13:44:03.577Z,67.50
2018-10-05T13:45:03.560Z,67.50
2018-10-05T13:46:03.560Z,67.50
2018-10-05T13:47:03.541Z,67.50
2018-10-05T13:48:03.535Z,67.50
2018-10-05T13:49:03.517Z,67.50
2018-10-05T13:50:03.510Z,67.50
2018-10-05T13:51:03.506Z,61.88
2018-10-05T13:52:03.493Z,61.88
2018-10-05T13:53:03.476Z,61.88
2018-10-05T13:54:03.465Z,61.88
2018-10-05T13:55:03.454Z,61.88
2018-10-05T13:56:03.457Z,61.88
2018-10-05T13:57:03.431Z,61.88
2018-10-05T13:58:03.418Z,61.88
2018-10-05T13:59:03.438Z,61.88
2018-10-05T14:00:03.412Z,61.88
2018-10-05T14:01:03.396Z,61.88
2018-10-05T14:02:03.376Z,61.88
2018-10-05T14:03:03.371Z,61.88
2018-10-05T14:04:03.383Z,61.88
2018-10-05T14:05:03.351Z,61.88
2018-10-05T14:06:03.373Z,61.88
2018-10-05T14:07:03.342Z,61.88
2018-10-05T14:08:03.309Z,61.88
2018-10-05T14:09:03.298Z,61.88
2018-10-05T14:10:03.289Z,61.88
2018-10-05T14:11:03.293Z,61.88
2018-10-05T14:12:03.267Z,61.88
2018-10-05T14:13:03.259Z,61.88
2018-10-05T14:14:03.245Z,61.88
2018-10-05T14:15:03.236Z,61.88
2018-10-05T14:16:03.237Z,61.88
2018-10-05T14:17:03.214Z,61.88
2018-10-05T14:18:03.207Z,61.88
2018-10-05T14:19:03.233Z,61.88
2018-10-05T14:20:03.218Z,61.88
2018-10-05T14:21:03.190Z,61.88
2018-10-05T14:22:03.158Z,61.88
2018-10-05T14:23:03.143Z,61.88
2018-10-05T14:24:03.133Z,61.88
2018-10-05T14:25:03.121Z,61.88
2018-10-05T14:26:03.120Z,61.88
2018-10-05T14:27:03.105Z,61.88
2018-10-05T14:28:03.099Z,56.25
2018-10-05T14:29:03.091Z,56.25
2018-10-05T14:30:03.064Z,61.88
2018-10-05T14:31:03.121Z,56.25
2018-10-05T14:32:03.041Z,56.25
2018-10-05T14:33:03.032Z,56.25
2018-10-05T14:34:03.020Z,56.25
2018-10-05T14:35:03.011Z,56.25
2018-10-05T14:36:02.999Z,56.25
2018-10-05T14:37:03.002Z,56.25
2018-10-05T14:38:03.040Z,56.25
2018-10-05T14:39:02.966Z,56.25
2018-10-05T14:40:02.955Z,56.25
2018-10-05T14:41:02.949Z,56.25
2018-10-05T14:42:02.944Z,56.25
2018-10-05T14:43:02.922Z,56.25
2018-10-05T14:44:02.915Z,56.25
2018-10-05T14:45:02.913Z,56.25
2018-10-05T14:46:02.897Z,56.25
2018-10-05T14:47:02.891Z,56.25
2018-10-05T14:48:02.874Z,56.25
2018-10-05T14:49:02.858Z,56.25
2018-10-05T14:50:02.848Z,56.25
2018-10-05T14:51:02.836Z,56.25
2018-10-05T14:52:02.849Z,56.25
2018-10-05T14:53:02.810Z,56.25
2018-10-05T14:54:02.799Z,56.25
2018-10-05T14:55:02.791Z,56.25
2018-10-05T14:56:02.777Z,56.25
2018-10-05T14:57:02.849Z,56.25
2018-10-05T14:58:02.755Z,56.25
2018-10-05T14:59:02.755Z,56.25
2018-10-05T15:00:02.734Z,56.25
2018-10-05T15:01:02.722Z,56.25
2018-10-05T15:02:02.724Z,56.25
2018-10-05T15:03:02.718Z,56.25
2018-10-05T15:04:02.689Z,50.62
2018-10-05T15:05:02.677Z,50.62
2018-10-05T15:06:02.664Z,50.62
2018-10-05T15:07:02.743Z,50.62
2018-10-05T15:08:02.653Z,50.62
2018-10-05T15:09:02.650Z,50.62
2018-10-05T15:10:02.624Z,50.62
2018-10-05T15:11:02.609Z,50.62
2018-10-05T15:12:02.609Z,50.62
2018-10-05T15:13:02.626Z,50.62
2018-10-05T15:14:02.582Z,50.62
2018-10-05T15:15:02.575Z,50.62
2018-10-05T15:16:02.553Z,50.62
2018-10-05T15:17:02.560Z,50.62
2018-10-05T15:18:02.533Z,50.62
2018-10-05T15:19:02.523Z,50.62
2018-10-05T15:20:02.538Z,45.00
2018-10-05T15:21:02.511Z,45.00
2018-10-05T15:22:02.537Z,45.00
2018-10-05T15:23:02.475Z,45.00
2018-10-05T15:24:02.469Z,45.00
2018-10-05T15:25:02.453Z,45.00
2018-10-05T15:26:02.449Z,45.00
2018-10-05T15:27:02.440Z,45.00
2018-10-05T15:28:02.421Z,45.00
2018-10-05T15:29:02.413Z,45.00
2018-10-05T15:30:02.402Z,45.00
2018-10-05T15:31:02.389Z,45.00
2018-10-05T15:32:02.389Z,45.00
2018-10-05T15:33:02.365Z,45.00
2018-10-05T15:34:02.354Z,39.38
2018-10-05T15:35:02.346Z,39.38
2018-10-05T15:36:02.335Z,39.38
2018-10-05T15:37:02.334Z,39.38
2018-10-05T15:38:02.317Z,39.38
2018-10-05T15:39:02.299Z,39.38
2018-10-05T15:40:02.288Z,39.38
2018-10-05T15:41:02.277Z,39.38
2018-10-05T15:42:02.267Z,39.38
2018-10-05T15:43:02.275Z,39.38
2018-10-05T15:44:02.245Z,39.38
2018-10-05T15:45:02.233Z,39.38
2018-10-05T15:46:02.231Z,39.38
2018-10-05T15:47:02.212Z,33.75
2018-10-05T15:48:02.209Z,33.75
2018-10-05T15:49:02.191Z,33.75
2018-10-05T15:50:02.175Z,33.75
2018-10-05T15:52:17.136Z,33.75
2018-10-05T15:53:10.879Z,33.75
2018-10-05T15:54:10.868Z,33.75
2018-10-05T15:55:10.862Z,33.75
2018-10-05T15:56:10.846Z,33.75
2018-10-05T15:57:10.840Z,33.75
2018-10-05T15:58:10.837Z,28.12
2018-10-05T15:59:10.848Z,28.12
2018-10-05T16:00:10.809Z,28.12
2018-10-05T16:02:34.749Z,28.12
2018-10-05T16:03:19.523Z,28.12
2018-10-05T16:04:19.505Z,28.12
2018-10-05T16:05:19.534Z,28.12
2018-10-05T16:06:19.464Z,28.12
2018-10-05T16:07:19.454Z,28.12
2018-10-05T16:08:19.463Z,28.12
2018-10-05T16:09:19.432Z,28.12
2018-10-05T16:10:19.421Z,28.12
2018-10-05T16:11:19.413Z,28.12
2018-10-05T16:12:19.452Z,28.12
2018-10-05T16:13:19.410Z,28.12
2018-10-05T16:14:19.378Z,28.12
2018-10-05T16:15:19.375Z,28.12
2018-10-05T16:16:19.379Z,28.12
2018-10-05T16:17:19.349Z,22.50
2018-10-05T16:18:19.416Z,22.50
2018-10-05T16:19:19.324Z,22.50
2018-10-05T16:20:19.321Z,22.50
2018-10-05T16:21:19.323Z,22.50
2018-10-05T16:22:19.312Z,22.50
2018-10-05T16:23:19.291Z,22.50
2018-10-05T16:24:19.270Z,22.50
2018-10-05T16:25:19.263Z,16.88
2018-10-05T16:26:19.248Z,16.88
2018-10-05T16:27:19.239Z,16.88
2018-10-05T16:28:19.243Z,16.88
2018-10-05T16:29:19.221Z,11.25
2018-10-05T16:30:19.222Z,11.25
2018-10-05T16:31:19.280Z,11.25
2018-10-05T16:32:19.241Z,11.25
2018-10-05T16:33:19.180Z,5.62
2018-10-05T16:34:19.160Z,5.62
2018-10-05T16:35:19.149Z,5.62
2018-10-05T16:36:19.149Z,5.62
2018-10-05T16:37:19.156Z,5.62
2018-10-05T16:39:27.829Z,11.25
2018-10-05T16:40:27.811Z,5.62
2018-10-05T16:41:27.799Z,5.62
2018-10-05T16:42:27.787Z,5.62
2018-10-05T16:44:45.732Z,5.62
2018-10-05T16:45:36.484Z,5.62
2018-10-05T16:46:36.473Z,5.62
2018-10-05T16:47:36.460Z,5.62
2018-10-05T16:48:36.888Z,0.00
2018-10-05T16:49:36.437Z,0.00
2018-10-05T16:50:36.425Z,0.00
2018-10-05T16:51:36.421Z,0.00
2018-10-05T16:52:36.402Z,0.00
2018-10-05T16:53:36.401Z,0.00
2018-10-05T16:54:36.378Z,0.00
2018-10-05T16:55:36.365Z,0.00
2018-10-05T16:56:36.355Z,0.00
2018-10-05T16:57:36.347Z,0.00
2018-10-05T16:58:36.346Z,0.00
2018-10-05T16:59:36.338Z,0.00
2018-10-05T17:01:45.273Z,0.00
2018-10-05T17:02:45.026Z,0.00
2018-10-05T17:03:45.041Z,0.00
2018-10-05T17:04:44.998Z,0.00
2018-10-05T17:07:29.939Z,0.00
2018-10-05T17:07:53.700Z,0.00
2018-10-05T17:08:53.703Z,0.00
2018-10-05T17:09:53.676Z,0.00
2018-10-05T17:10:53.720Z,0.00
2018-10-05T17:11:53.653Z,0.00
2018-10-05T17:12:53.641Z,0.00
2018-10-05T17:13:53.642Z,0.00
2018-10-05T17:14:53.622Z,0.00
2018-10-05T17:15:53.612Z,0.00
2018-10-05T17:16:53.597Z,0.00
2018-10-05T17:17:53.585Z,0.00
2018-10-05T17:18:53.585Z,0.00
2018-10-05T17:19:53.562Z,0.00
2018-10-05T17:20:53.562Z,0.00
2018-10-05T17:21:53.540Z,0.00
2018-10-05T17:22:53.527Z,0.00
2018-10-05T17:23:53.518Z,0.00
2018-10-05T17:24:53.519Z,0.00
2018-10-05T17:25:53.494Z,0.00
2018-10-05T17:26:53.539Z,0.00
2018-10-05T17:27:53.474Z,0.00
2018-10-05T17:28:53.483Z,0.00
2018-10-05T17:29:53.459Z,0.00
2018-10-05T17:30:53.442Z,0.00
2018-10-05T17:33:17.401Z,0.00
2018-10-05T17:34:02.168Z,0.00
2018-10-05T17:35:02.141Z,0.00
2018-10-05T17:36:02.120Z,0.00
2018-10-05T17:37:02.096Z,0.00
2018-10-05T17:38:02.183Z,0.00
2018-10-05T17:39:02.073Z,0.00
2018-10-05T17:40:02.072Z,0.00
2018-10-05T17:41:02.051Z,0.00
2018-10-05T17:42:02.039Z,0.00
2018-10-05T17:43:02.029Z,0.00
2018-10-05T17:44:02.018Z,0.00
2018-10-05T17:45:02.098Z,0.00
2018-10-05T17:46:01.996Z,0.00
2018-10-05T17:47:01.982Z,0.00
2018-10-05T17:48:01.972Z,0.00
2018-10-05T17:49:01.962Z,0.00
2018-10-05T17:50:01.962Z,0.00
2018-10-05T17:51:01.942Z,0.00
2018-10-05T17:52:01.932Z,0.00
2018-10-05T17:53:01.917Z,0.00
2018-10-05T17:54:01.945Z,0.00
2018-10-05T17:55:01.911Z,0.00
2018-10-05T17:56:01.978Z,0.00
2018-10-05T17:57:01.877Z,0.00
2018-10-05T17:58:01.863Z,0.00
2018-10-05T17:59:01.850Z,0.00
2018-10-05T18:00:01.853Z,0.00
2018-10-05T18:01:01.828Z,0.00
2018-10-05T18:02:01.844Z,0.00
2018-10-05T18:03:01.811Z,0.00
2018-10-05T18:04:01.797Z,0.00
2018-10-05T18:05:01.795Z,0.00
2018-10-05T18:06:01.775Z,0.00
2018-10-05T18:07:01.763Z,0.00
2018-10-05T18:08:01.755Z,0.00
2018-10-05T18:09:01.738Z,0.00
2018-10-05T18:10:01.739Z,0.00
2018-10-05T18:11:01.720Z,0.00
2018-10-05T18:12:01.705Z,0.00
2018-10-05T18:13:01.702Z,0.00
2018-10-05T18:15:46.656Z,0.00
2018-10-05T18:16:10.398Z,0.00
2018-10-05T18:17:10.386Z,0.00
2018-10-05T18:19:34.325Z,0.00
2018-10-05T18:20:19.177Z,0.00
2018-10-05T18:21:19.075Z,0.00
2018-10-05T18:22:19.065Z,0.00
2018-10-05T18:23:19.055Z,0.00
2018-10-05T18:24:19.040Z,0.00
2018-10-05T18:25:19.041Z,0.00
2018-10-05T18:26:19.021Z,0.00
2018-10-05T18:27:19.011Z,0.00
2018-10-05T18:28:18.994Z,0.00
2018-10-05T18:29:18.984Z,0.00
2018-10-05T18:30:18.983Z,0.00
2018-10-05T18:31:18.960Z,0.00
2018-10-05T18:32:18.949Z,0.00
2018-10-05T18:33:18.962Z,0.00
2018-10-05T18:34:18.928Z,0.00
2018-10-05T18:35:18.930Z,0.00
2018-10-05T18:36:18.905Z,0.00
2018-10-05T18:38:55.862Z,0.00
2018-10-05T18:39:27.612Z,0.00
2018-10-05T18:40:27.612Z,0.00
2018-10-05T18:41:27.674Z,0.00
2018-10-05T18:42:27.575Z,0.00
2018-10-05T18:43:27.565Z,0.00
2018-10-05T18:44:27.554Z,0.00
2018-10-05T18:45:27.551Z,0.00
2018-10-05T18:46:27.542Z,0.00
2018-10-05T18:47:27.519Z,0.00
2018-10-05T18:48:27.508Z,0.00
2018-10-05T18:49:27.496Z,0.00
2018-10-05T18:50:27.500Z,0.00
2018-10-05T18:51:27.477Z,0.00
2018-10-05T18:52:27.464Z,0.00
2018-10-05T18:54:57.416Z,0.00
2018-10-05T18:55:36.171Z,0.00
2018-10-05T18:56:36.146Z,0.00
2018-10-05T18:57:36.138Z,0.00
2018-10-05T18:58:36.127Z,0.00
2018-10-05T18:59:36.131Z,0.00
2018-10-05T19:00:36.114Z,0.00
2018-10-05T19:01:36.093Z,0.00
2018-10-05T19:02:36.082Z,0.00
2018-10-05T19:03:36.071Z,0.00
2018-10-05T19:04:36.066Z,0.00
2018-10-05T19:05:36.047Z,0.00
2018-10-05T19:06:36.057Z,0.00
2018-10-05T19:07:36.026Z,0.00
2018-10-05T19:08:36.013Z,0.00
2018-10-05T19:09:36.004Z,0.00
2018-10-05T19:12:17.456Z,0.00
2018-10-05T19:12:44.694Z,0.00
2018-10-05T19:13:44.811Z,0.00
2018-10-05T19:14:44.674Z,0.00
2018-10-05T19:15:44.662Z,0.00
2018-10-05T19:16:44.673Z,0.00
2018-10-05T19:17:44.641Z,0.00
2018-10-05T19:18:44.627Z,0.00
2018-10-05T19:19:44.615Z,0.00
2018-10-05T19:22:02.569Z,0.00
2018-10-05T19:22:53.307Z,0.00
2018-10-05T19:23:53.302Z,0.00
2018-10-05T19:24:53.292Z,0.00
2018-10-05T19:25:53.362Z,0.00
2018-10-05T19:26:53.275Z,0.00
2018-10-05T19:27:53.262Z,0.00
2018-10-05T19:28:53.256Z,0.00
2018-10-05T19:29:53.235Z,0.00
2018-10-05T19:30:53.228Z,0.00
2018-10-05T19:31:53.220Z,0.00
2018-10-05T19:32:53.197Z,0.00
2018-10-05T19:33:53.185Z,0.00
2018-10-05T19:34:53.181Z,0.00
2018-10-05T19:35:53.163Z,0.00
2018-10-05T19:36:53.164Z,0.00
2018-10-05T19:37:53.141Z,0.00
2018-10-05T19:38:53.130Z,0.00
2018-10-05T19:39:53.119Z,0.00
2018-10-05T19:40:53.118Z,0.00
2018-10-05T19:41:53.116Z,0.00
2018-10-05T19:42:53.086Z,0.00
2018-10-05T19:43:53.074Z,0.00
2018-10-05T19:44:53.063Z,0.00
2018-10-05T19:45:53.059Z,0.00
2018-10-05T19:46:53.048Z,0.00
2018-10-05T19:47:53.035Z,0.00
2018-10-05T19:48:53.017Z,0.00
2018-10-05T19:49:53.004Z,0.00
2018-10-05T19:50:52.998Z,0.00
2018-10-05T19:51:53.015Z,0.00
2018-10-05T19:52:53.052Z,0.00
2018-10-05T19:55:02.915Z,0.00
2018-10-05T19:56:01.677Z,0.00
2018-10-05T19:57:01.678Z,0.00
2018-10-05T19:58:01.672Z,0.00
2018-10-05T19:59:01.647Z,0.00
2018-10-05T20:00:01.635Z,0.00
2018-10-05T20:01:01.625Z,0.00
2018-10-05T20:02:01.676Z,0.00
2018-10-05T20:03:01.598Z,0.00
2018-10-05T20:04:01.589Z,0.00
2018-10-05T20:05:01.580Z,0.00
2018-10-05T20:06:01.569Z,0.00
2018-10-05T20:07:01.565Z,0.00
2018-10-05T20:08:01.544Z,0.00
2018-10-05T20:09:01.534Z,0.00
2018-10-05T20:10:01.547Z,0.00
2018-10-05T20:11:01.509Z,0.00
2018-10-05T20:12:01.514Z,0.00
2018-10-05T20:13:01.487Z,0.00
2018-10-05T20:14:01.477Z,0.00
2018-10-05T20:15:01.466Z,0.00
2018-10-05T20:16:01.460Z,0.00
2018-10-05T20:17:01.455Z,0.00
2018-10-05T20:18:01.620Z,0.00
2018-10-05T20:19:01.421Z,0.00
2018-10-05T20:20:01.412Z,0.00
2018-10-05T20:21:01.406Z,0.00
2018-10-05T20:22:01.398Z,0.00
2018-10-05T20:23:01.379Z,0.00
2018-10-05T20:24:01.365Z,0.00
2018-10-05T20:26:10.077Z,0.00
2018-10-05T20:27:10.078Z,0.00
2018-10-05T20:28:10.055Z,0.00
2018-10-05T20:29:10.047Z,0.00
2018-10-05T20:30:10.030Z,0.00
2018-10-05T20:31:10.023Z,0.00
2018-10-05T20:32:10.021Z,0.00
2018-10-05T20:33:09.998Z,0.00
2018-10-05T20:34:10.007Z,0.00
2018-10-05T20:35:09.984Z,0.00
2018-10-05T20:36:10.212Z,0.00
2018-10-05T20:37:10.125Z,0.00
2018-10-05T20:38:10.008Z,0.00
2018-10-05T20:39:09.932Z,0.00
2018-10-05T20:40:09.923Z,0.00
2018-10-05T20:41:09.921Z,0.00
2018-10-05T20:42:09.908Z,0.00
2018-10-05T20:43:09.888Z,0.00
2018-10-05T20:44:09.878Z,0.00
2018-10-05T20:46:33.817Z,0.00
2018-10-05T20:47:18.587Z,0.00
2018-10-05T20:48:18.571Z,0.00
2018-10-05T20:49:18.548Z,0.00
2018-10-05T20:50:18.538Z,0.00
2018-10-05T20:51:18.525Z,0.00
2018-10-05T20:52:18.524Z,0.00
2018-10-05T20:53:18.511Z,0.00
2018-10-05T20:54:18.491Z,0.00
2018-10-05T20:55:18.480Z,0.00
2018-10-05T20:56:18.470Z,0.00
2018-10-05T20:57:18.471Z,0.00
2018-10-05T20:58:18.449Z,0.00
2018-10-05T20:59:18.437Z,0.00
2018-10-05T21:00:18.430Z,0.00
2018-10-05T21:01:18.412Z,0.00
2018-10-05T21:02:18.403Z,0.00
2018-10-05T21:03:18.401Z,0.00
2018-10-05T21:04:18.452Z,0.00
2018-10-05T21:05:18.369Z,0.00
2018-10-05T21:06:18.356Z,0.00
2018-10-05T21:07:18.345Z,0.00
2018-10-05T21:08:18.345Z,0.00
2018-10-05T21:09:18.329Z,0.00
2018-10-05T21:10:18.312Z,0.00
2018-10-05T21:11:18.303Z,0.00
2018-10-05T21:12:18.290Z,0.00
2018-10-05T21:13:18.291Z,0.00
2018-10-05T21:14:18.266Z,0.00
2018-10-05T21:15:18.384Z,0.00
2018-10-05T21:16:18.251Z,0.00
2018-10-05T21:17:18.231Z,0.00
2018-10-05T21:18:18.231Z,0.00
2018-10-05T21:19:18.210Z,0.00
2018-10-05T21:20:18.198Z,0.00
2018-10-05T21:21:18.200Z,0.00
2018-10-05T21:22:18.177Z,0.00
2018-10-05T21:23:18.181Z,0.00
2018-10-05T21:24:18.154Z,0.00
2018-10-05T21:25:18.143Z,0.00
2018-10-05T21:26:18.132Z,0.00
2018-10-05T21:27:18.121Z,0.00
2018-10-05T21:28:18.121Z,0.00
2018-10-05T21:29:18.096Z,0.00
2018-10-05T21:30:18.085Z,0.00
2018-10-05T21:31:18.073Z,0.00
2018-10-05T21:32:18.071Z,0.00
2018-10-05T21:33:18.148Z,0.00
2018-10-05T21:34:18.039Z,0.00
2018-10-05T21:35:18.029Z,0.00
2018-10-05T21:36:18.017Z,0.00
2018-10-05T21:38:36.898Z,0.00
2018-10-05T21:39:26.725Z,0.00
2018-10-05T21:40:26.704Z,0.00
2018-10-05T21:41:26.692Z,0.00
2018-10-05T21:42:26.681Z,0.00
2018-10-05T21:43:26.684Z,0.00
2018-10-05T21:44:26.659Z,0.00
2018-10-05T21:45:26.652Z,0.00
2018-10-05T21:46:26.638Z,0.00
2018-10-05T21:47:26.627Z,0.00
2018-10-05T21:48:26.626Z,0.00
2018-10-05T21:49:26.604Z,0.00
2018-10-05T21:50:26.599Z,0.00
2018-10-05T21:51:26.652Z,0.00
2018-10-05T21:52:26.600Z,0.00
2018-10-05T21:53:26.602Z,0.00
2018-10-05T21:54:26.547Z,0.00
2018-10-05T21:55:26.534Z,0.00
2018-10-05T21:56:26.523Z,0.00
2018-10-05T21:57:26.510Z,0.00
2018-10-05T21:58:26.509Z,0.00
2018-10-05T21:59:26.490Z,0.00
2018-10-05T22:00:26.478Z,0.00
2018-10-05T22:01:26.471Z,0.00
2018-10-05T22:02:26.464Z,0.00
2018-10-05T22:03:26.476Z,0.00
2018-10-05T22:05:50.387Z,0.00
2018-10-05T22:06:35.195Z,0.00
2018-10-05T22:07:35.128Z,0.00
2018-10-05T22:08:35.133Z,0.00
2018-10-05T22:09:35.117Z,0.00
2018-10-05T22:10:35.094Z,0.00
2018-10-05T22:11:35.086Z,0.00
2018-10-05T22:12:35.070Z,0.00
2018-10-05T22:13:35.076Z,0.00
2018-10-05T22:14:35.055Z,0.00
2018-10-05T22:15:35.036Z,0.00
2018-10-05T22:16:35.025Z,0.00
2018-10-05T22:17:35.014Z,0.00
2018-10-05T22:18:35.021Z,0.00
2018-10-05T22:19:35.077Z,0.00
2018-10-05T22:20:34.985Z,0.00
2018-10-05T22:21:34.969Z,0.00
2018-10-05T22:22:34.958Z,0.00
2018-10-05T22:23:34.959Z,0.00
2018-10-05T22:24:34.937Z,0.00
2018-10-05T22:25:34.930Z,0.00
2018-10-05T22:26:34.914Z,0.00
2018-10-05T22:27:34.901Z,0.00
2018-10-05T22:28:34.891Z,0.00
2018-10-05T22:29:34.888Z,0.00
2018-10-05T22:31:43.598Z,0.00
2018-10-05T22:32:43.590Z,0.00
2018-10-05T22:33:43.587Z,0.00
2018-10-05T22:34:43.556Z,0.00
2018-10-05T22:35:43.546Z,0.00
2018-10-05T22:36:43.537Z,0.00
2018-10-05T22:37:43.533Z,0.00
2018-10-05T22:38:43.545Z,0.00
2018-10-05T22:39:43.526Z,0.00
2018-10-05T22:40:43.492Z,0.00
2018-10-05T22:41:43.481Z,0.00
2018-10-05T22:42:43.467Z,0.00
2018-10-05T22:43:43.460Z,0.00
2018-10-05T22:44:43.463Z,0.00
2018-10-05T22:45:43.435Z,0.00
2018-10-05T22:46:43.423Z,0.00
2018-10-05T22:47:43.412Z,0.00
2018-10-05T22:48:43.404Z,0.00
2018-10-05T22:49:43.407Z,0.00
2018-10-05T22:50:43.382Z,0.00
2018-10-05T22:51:43.368Z,0.00
2018-10-05T22:52:43.357Z,0.00
2018-10-05T22:53:43.346Z,0.00
2018-10-05T22:54:43.352Z,0.00
2018-10-05T22:55:43.336Z,0.00
2018-10-05T22:56:43.319Z,0.00
2018-10-05T22:57:43.301Z,0.00
2018-10-05T22:58:43.291Z,0.00
2018-10-05T22:59:43.293Z,0.00
2018-10-05T23:00:43.291Z,0.00
2018-10-05T23:01:43.257Z,0.00
2018-10-05T23:02:43.247Z,0.00
2018-10-05T23:03:43.235Z,0.00
2018-10-05T23:04:43.235Z,0.00
2018-10-05T23:05:43.213Z,0.00
2018-10-05T23:06:43.202Z,0.00
2018-10-05T23:07:43.210Z,0.00
2018-10-05T23:08:43.183Z,0.00
2018-10-05T23:09:43.181Z,0.00
2018-10-05T23:10:43.163Z,0.00
2018-10-05T23:11:43.146Z,0.00
2018-10-05T23:12:43.142Z,0.00
2018-10-05T23:13:43.125Z,0.00
2018-10-05T23:14:43.125Z,0.00
2018-10-05T23:15:43.104Z,0.00
2018-10-05T23:18:07.048Z,0.00
2018-10-05T23:18:51.799Z,0.00
2018-10-05T23:19:51.804Z,0.00
2018-10-05T23:20:51.777Z,0.00
2018-10-05T23:21:51.765Z,0.00
2018-10-05T23:22:51.751Z,0.00
2018-10-05T23:23:51.747Z,0.00
2018-10-05T23:24:51.763Z,0.00
2018-10-05T23:25:51.736Z,0.00
2018-10-05T23:26:51.706Z,0.00
2018-10-05T23:27:51.699Z,0.00
2018-10-05T23:28:51.684Z,0.00
2018-10-05T23:29:51.700Z,0.00
2018-10-05T23:30:51.672Z,0.00
2018-10-05T23:31:51.663Z,0.00
2018-10-05T23:32:51.649Z,0.00
2018-10-05T23:33:51.638Z,0.00
2018-10-05T23:34:51.650Z,0.00
2018-10-05T23:35:51.623Z,0.00
2018-10-05T23:36:51.604Z,0.00
2018-10-05T23:37:51.584Z,0.00
2018-10-05T23:38:51.575Z,0.00
2018-10-05T23:39:51.564Z,0.00
2018-10-05T23:40:51.572Z,0.00